createdAt,value
2024-04-06T00:04:19.820Z,100012.80
2024-04-06T00:09:22.972Z,99980.00
2024-04-06T00:14:30.630Z,99971.60
2024-04-06T00:19:39.726Z,99994.20
2024-04-06T00:24:43.960Z,100008.60
2024-04-06T00:29:48.997Z,100009.20
2024-04-06T00:34:51.715Z,100014.20
2024-04-06T00:39:54.211Z,100022.80
2024-04-06T00:45:02.324Z,100024.00
2024-04-06T00:50:17.038Z,100020.20
2024-04-06T00:55:21.112Z,100023.00
2024-04-06T01:00:30.535Z,100012.60
2024-04-06T01:05:35.577Z,100017.40
2024-04-06T01:10:40.819Z,100020.60
2024-04-06T01:15:43.825Z,100025.40
2024-04-06T01:20:48.389Z,100039.40
2024-04-06T01:25:55.611Z,100042.20
2024-04-06T01:30:58.792Z,100038.80
2024-04-06T01:36:02.085Z,100051.60
2024-04-06T01:41:07.548Z,100047.60
2024-04-06T01:46:11.363Z,100054.40
2024-04-06T01:51:20.849Z,100068.00
2024-04-06T01:56:32.457Z,100063.20
2024-04-06T02:01:37.450Z,100080.00
2024-04-06T02:06:40.157Z,100080.40
2024-04-06T02:11:45.387Z,100077.40
2024-04-06T02:16:53.193Z,100076.40
2024-04-06T02:22:01.306Z,100081.40
2024-04-06T02:27:04.984Z,100085.80
2024-04-06T02:32:09.259Z,100097.60
2024-04-06T02:37:12.096Z,100097.80
2024-04-06T02:42:18.179Z,100104.80
2024-04-06T02:47:27.089Z,100119.20
2024-04-06T02:52:29.945Z,100125.20
2024-04-06T02:57:35.188Z,100131.60
2024-04-06T03:02:38.178Z,100140.20
2024-04-06T03:07:41.172Z,100141.40
2024-04-06T03:12:47.933Z,100145.00
2024-04-06T03:17:52.302Z,100144.40
2024-04-06T03:23:03.146Z,100156.00
2024-04-06T03:28:11.499Z,100147.80
2024-04-06T03:33:14.140Z,100148.00
2024-04-06T03:38:19.529Z,100150.60
2024-04-06T03:43:27.864Z,100160.60
2024-04-06T03:48:34.129Z,100161.80
2024-04-06T03:53:39.747Z,100163.00
2024-04-06T03:58:43.653Z,100166.00
2024-04-06T04:03:46.417Z,100173.40
2024-04-06T04:08:49.119Z,100181.00
2024-04-06T04:13:54.904Z,100180.20
2024-04-06T04:18:57.868Z,100187.00
2024-04-06T04:24:06.170Z,100176.60
2024-04-06T04:29:11.397Z,100168.60
2024-04-06T04:34:16.605Z,100169.60
2024-04-06T04:39:21.553Z,100172.00
2024-04-06T04:49:42.155Z,100161.80
2024-04-06T04:54:47.807Z,100165.60
2024-04-06T04:59:50.960Z,100170.00
2024-04-06T05:04:56.517Z,100170.80
2024-04-06T05:09:59.329Z,100168.40
2024-04-06T05:15:05.594Z,100176.40
2024-04-06T05:20:09.980Z,100171.60
2024-04-06T05:25:13.000Z,100173.80
2024-04-06T05:30:15.836Z,100179.20
2024-04-06T05:35:19.403Z,100178.20
2024-04-06T05:40:23.884Z,100170.60
2024-04-06T05:45:26.428Z,100169.40
2024-04-06T05:50:34.991Z,100173.00
2024-04-06T05:55:38.118Z,100174.60
2024-04-06T06:00:43.495Z,100177.20
2024-04-06T06:05:46.330Z,100174.00
2024-04-06T06:10:51.462Z,100184.00
2024-04-06T06:15:55.994Z,100174.60
2024-04-06T06:21:06.919Z,100184.40
2024-04-06T06:26:09.603Z,100214.00
2024-04-06T06:31:17.367Z,100226.20
2024-04-06T06:41:31.423Z,100189.80
2024-04-06T06:46:35.934Z,100265.20
2024-04-06T06:51:40.647Z,100265.40
2024-04-06T06:56:46.206Z,100282.00
2024-04-06T07:01:51.600Z,100267.60
2024-04-06T07:12:00.254Z,100268.00
2024-04-06T07:17:12.258Z,100314.00
2024-04-06T07:22:16.529Z,100328.60
2024-04-06T07:27:21.567Z,100331.80
2024-04-06T07:32:24.272Z,100337.20
2024-04-06T07:37:29.396Z,100334.60
2024-04-06T07:42:35.008Z,100331.20
2024-04-06T07:47:40.211Z,100346.00
2024-04-06T07:52:45.283Z,100301.60
2024-04-06T07:57:48.084Z,100337.20
2024-04-06T08:02:51.235Z,100339.20
2024-04-06T08:07:54.122Z,100321.40
2024-04-06T08:12:59.499Z,100328.20
2024-04-06T08:18:08.505Z,100326.60
2024-04-06T08:23:19.263Z,100344.40
2024-04-06T08:28:22.468Z,100321.80
2024-04-06T08:33:26.406Z,100318.40
2024-04-06T08:38:34.119Z,100317.40
2024-04-06T08:43:44.376Z,100316.20
2024-04-06T08:48:49.778Z,100327.80
2024-04-06T08:53:58.069Z,100325.40
2024-04-06T08:59:06.356Z,100356.00
2024-04-06T09:04:09.035Z,100337.80
2024-04-06T09:09:19.371Z,100342.60
2024-04-06T09:14:25.807Z,100336.80
2024-04-06T09:19:28.551Z,100337.20
2024-04-06T09:24:33.275Z,100346.40
2024-04-06T09:29:36.978Z,100347.00
2024-04-06T09:34:54.123Z,100361.00
2024-04-06T09:39:59.227Z,100348.80
2024-04-06T09:45:09.172Z,100354.00
2024-04-06T09:50:17.483Z,100355.00
2024-04-06T09:55:20.301Z,100360.80
2024-04-06T10:00:23.600Z,100368.20
2024-04-06T10:06:20.106Z,100371.60
2024-04-06T10:11:25.233Z,100384.80
2024-04-06T10:16:33.253Z,100401.20
2024-04-06T10:21:47.835Z,100410.20
2024-04-06T10:26:56.029Z,100404.60
2024-04-06T10:32:02.608Z,100413.40
2024-04-06T10:37:08.219Z,100423.00
2024-04-06T10:42:13.111Z,100436.40
2024-04-06T10:47:21.708Z,100443.20
2024-04-06T10:52:25.834Z,100438.80
2024-04-06T10:57:31.141Z,100442.20
2024-04-06T11:02:34.941Z,100440.40
2024-04-06T11:07:43.139Z,100440.00
2024-04-06T11:12:51.305Z,100446.40
2024-04-06T11:17:56.210Z,100459.00
2024-04-06T11:23:02.191Z,100465.20
2024-04-06T11:28:06.046Z,100464.40
2024-04-06T11:33:12.968Z,100478.60
2024-04-06T11:38:22.632Z,100480.40
2024-04-06T11:43:27.203Z,100485.40
2024-04-06T11:49:00.207Z,100488.00
2024-04-06T11:54:05.965Z,100483.80
2024-04-06T11:59:09.126Z,100488.40
2024-04-06T12:04:12.371Z,100485.20
2024-04-06T12:09:17.618Z,100495.80
2024-04-06T12:14:23.881Z,100493.40
2024-04-06T12:19:27.513Z,100498.20
2024-04-06T12:30:02.352Z,100511.40
2024-04-06T12:35:08.356Z,100512.60
2024-04-06T12:40:13.715Z,100514.40
2024-04-06T12:45:16.643Z,100521.40
2024-04-06T12:50:27.892Z,100521.40
2024-04-06T12:55:33.603Z,100531.00
2024-04-06T13:00:40.509Z,100531.80
2024-04-06T13:05:43.351Z,100542.40
2024-04-06T13:10:51.851Z,100546.20
2024-04-06T13:15:57.331Z,100543.80
2024-04-06T13:21:01.108Z,100553.80
2024-04-06T13:26:07.252Z,100560.20
2024-04-06T13:31:13.853Z,100555.40
2024-04-06T13:36:16.587Z,100558.40
2024-04-06T13:41:24.591Z,100562.40
2024-04-06T13:46:27.402Z,100569.00
2024-04-06T13:51:30.324Z,100575.00
2024-04-06T13:56:35.594Z,100581.00
2024-04-06T14:01:44.800Z,100583.20
2024-04-06T14:06:48.060Z,100587.80
2024-04-06T14:11:50.715Z,100583.80
2024-04-06T14:16:53.631Z,100595.60
2024-04-06T14:21:57.118Z,100602.60
2024-04-06T14:26:59.762Z,100599.40
2024-04-06T14:32:08.021Z,100594.40
2024-04-06T14:37:11.458Z,100604.20
2024-04-06T14:42:14.184Z,100607.80
2024-04-06T14:47:16.851Z,100615.80
2024-04-06T14:52:21.764Z,100611.40
2024-04-06T14:57:24.569Z,100610.00
2024-04-06T15:02:27.261Z,100611.60
2024-04-06T15:07:54.693Z,100616.20
2024-04-06T15:13:07.528Z,100622.20
2024-04-06T15:18:13.701Z,100630.00
2024-04-06T15:23:17.098Z,100638.80
2024-04-06T15:28:24.126Z,100640.60
2024-04-06T15:33:27.018Z,100646.20
2024-04-06T15:38:30.741Z,100649.60
2024-04-06T15:43:39.348Z,100659.20
2024-04-06T15:48:46.472Z,100671.60
2024-04-06T15:53:49.287Z,100671.40
2024-04-06T15:58:53.499Z,100674.20
2024-04-06T16:04:01.741Z,100675.60
2024-04-06T16:09:04.610Z,100670.40
2024-04-06T16:14:13.434Z,100682.60
2024-04-06T16:19:16.490Z,100691.60
2024-04-06T16:24:24.171Z,100700.60
2024-04-06T16:29:32.427Z,100703.00
2024-04-06T16:34:41.873Z,100703.80
2024-04-06T16:39:45.118Z,100709.80
2024-04-06T16:44:50.630Z,100722.80
2024-04-06T16:49:55.258Z,100727.60
2024-04-06T16:55:00.111Z,100740.80
2024-04-06T17:00:08.364Z,100752.00
2024-04-06T17:05:12.372Z,100750.20
2024-04-06T17:10:15.404Z,100763.40
2024-04-06T17:15:18.720Z,100780.60
2024-04-06T17:20:23.425Z,100795.40
2024-04-06T17:25:29.179Z,100809.60
2024-04-06T17:30:34.431Z,100813.00
2024-04-06T17:35:38.482Z,100819.20
2024-04-06T17:40:43.796Z,100825.80
2024-04-06T17:45:46.340Z,100823.20
2024-04-06T17:50:49.220Z,100816.00
2024-04-06T17:55:51.996Z,100811.40
2024-04-06T18:00:55.880Z,100820.20
2024-04-06T18:06:00.106Z,100822.00
2024-04-06T18:11:07.727Z,100823.40
2024-04-06T18:16:22.891Z,100820.80
2024-04-06T18:21:31.527Z,100816.20
2024-04-06T18:26:40.573Z,100819.80
2024-04-06T18:31:46.205Z,100822.20
2024-04-06T18:36:51.006Z,100832.00
2024-04-06T18:42:05.018Z,100834.20
2024-04-06T18:47:07.731Z,100843.80
2024-04-06T18:52:13.027Z,100859.40
2024-04-06T18:57:23.573Z,100864.80
2024-04-06T19:02:28.313Z,100870.00
2024-04-06T19:07:33.632Z,100880.80
2024-04-06T19:12:42.743Z,100876.20
2024-04-06T19:17:47.404Z,100876.80
2024-04-06T19:22:50.565Z,100884.60
2024-04-06T19:27:53.411Z,100878.60
2024-04-06T19:33:01.469Z,100895.00
2024-04-06T19:38:04.599Z,100893.20
2024-04-06T19:43:16.171Z,100904.80
2024-04-06T19:48:18.964Z,100902.80
2024-04-06T19:53:23.206Z,100906.60
2024-04-06T19:58:26.486Z,100905.80
2024-04-06T20:03:29.502Z,100905.00
2024-04-06T20:08:32.301Z,100899.80
2024-04-06T20:13:37.222Z,100897.00
2024-04-06T20:18:42.233Z,100899.00
2024-04-06T20:24:13.047Z,100888.20
2024-04-06T20:29:19.384Z,100900.80
2024-04-06T20:34:26.924Z,100893.60
2024-04-06T20:39:29.730Z,100894.60
2024-04-06T20:44:35.279Z,100903.40
2024-04-06T20:49:40.519Z,100914.60
2024-04-06T20:54:44.898Z,100911.00
2024-04-06T20:59:47.478Z,100913.40
2024-04-06T21:04:52.594Z,100903.40
2024-04-06T21:10:00.717Z,100907.80
2024-04-06T21:15:27.255Z,100922.60
2024-04-06T21:20:34.011Z,100930.40
2024-04-06T21:25:37.215Z,100941.20
2024-04-06T21:30:40.401Z,100943.20
2024-04-06T21:35:46.357Z,100953.40
2024-04-06T21:40:52.019Z,100959.40
2024-04-06T21:45:57.627Z,100962.20
2024-04-06T21:51:04.591Z,100957.80
2024-04-06T21:56:08.709Z,100954.00
2024-04-06T22:01:15.298Z,100945.80
2024-04-06T22:06:18.402Z,100946.00
2024-04-06T22:11:23.092Z,100947.80
2024-04-06T22:16:29.580Z,100956.00
2024-04-06T22:21:33.553Z,100958.00
2024-04-06T22:26:36.175Z,100960.60
2024-04-06T22:34:38.892Z,100970.40
2024-04-06T22:39:46.657Z,100970.40
2024-04-06T22:44:50.023Z,100982.80
2024-04-06T22:49:55.345Z,100981.40
2024-04-06T22:54:58.070Z,100968.40
2024-04-06T23:00:03.094Z,100957.60
2024-04-06T23:05:07.020Z,100952.20
2024-04-06T23:10:14.134Z,100952.20
2024-04-06T23:15:18.201Z,100958.20
2024-04-06T23:20:22.212Z,100963.40
2024-04-06T23:25:25.084Z,100958.80
2024-04-06T23:30:27.705Z,100946.80
2024-04-06T23:35:32.621Z,100953.00
2024-04-06T23:40:42.978Z,100959.20
2024-04-06T23:45:45.845Z,100959.60
2024-04-06T23:51:15.167Z,100955.80
2024-04-06T23:56:19.875Z,100957.60
